Terminal Aerodrome Forecast
Issued by NWS

Home | Current Version | Previous Version | Text Only | Print | Product List | Glossary On
Versions: 1 2 3 4 5 6 7 8 9 10 11 12 13 14 15 16 17 18 19 20 21 22 23 24 25 26 27 28 29 30 31 32 33
000
FTUS43 KDVN 291259 AAA
TAFCID
TAF AMD
KCID 291259Z 2913/3012 36005KT 6SM BR OVC006
     FM291500 01008KT 6SM BR OVC008
     FM291900 04007KT P6SM SCT008 OVC022
     FM300000 07010KT P6SM OVC030
     FM300900 07015KT P6SM VCSH SCT012 OVC030=

USA.gov is the U.S. government's official web portal to all federal, state and local government web resources and services.